Time;durP1;ratioP1;P1;durP2;ratioP2;P2;SDS_P1;SDS_P2;PMS_P1;PMS_P2;Temp;Humidity;BMP_temperature;BMP_pressure;BME280_temperature;BME280_humidity;BME280_pressure;Samples;Min_cycle;Max_cycle;Signal;HPM_P1;HPM_P2
2022/08/23 00:04:23;;;;;;;13.93;12.52;;;;;;;17.30;84.59;99971.91;30853291;28;96774;-58
2022/08/23 00:19:25;;;;;;;16.27;12.43;;;;;;;17.31;84.78;99967.38;30858932;28;97258;-59
2022/08/23 00:34:27;;;;;;;15.77;12.43;;;;;;;17.30;84.82;99974.63;30872077;28;96730;-58
2022/08/23 00:49:30;;;;;;;15.60;11.57;;;;;;;17.35;84.84;99955.13;30870251;28;96757;-58
2022/08/23 01:04:36;;;;;;;13.57;11.87;;;;;;;17.30;84.74;99949.56;30868763;28;97499;-58
2022/08/23 01:19:47;;;;;;;15.03;12.10;;;;;;;17.33;85.05;99943.75;30867625;28;97018;-59
2022/08/23 01:34:47;;;;;;;13.90;10.67;;;;;;;17.27;84.87;99990.41;30865726;28;97389;-59
2022/08/23 01:49:48;;;;;;;15.23;11.07;;;;;;;17.28;84.84;100013.56;30864073;28;97776;-58
2022/08/23 02:04:48;;;;;;;11.80;9.23;;;;;;;17.24;84.90;99989.78;30862794;28;96822;-58
2022/08/23 02:19:48;;;;;;;11.70;9.60;;;;;;;17.20;84.81;100006.59;30861015;28;111691;-58
2022/08/23 02:34:49;;;;;;;9.93;8.35;;;;;;;17.17;84.97;99994.41;30860429;28;97334;-59
2022/08/23 02:49:50;;;;;;;9.65;8.63;;;;;;;17.10;85.19;99988.25;30857955;28;96734;-59
2022/08/23 03:04:50;;;;;;;9.60;7.90;;;;;;;17.02;85.01;100002.78;30856302;28;96853;-59
2022/08/23 03:19:51;;;;;;;9.07;7.43;;;;;;;16.97;85.28;99991.84;30854557;28;97179;-59
2022/08/23 03:34:52;;;;;;;8.95;8.05;;;;;;;16.95;85.27;100001.16;30855919;28;96685;-59
2022/08/23 03:49:53;;;;;;;9.53;7.70;;;;;;;16.88;85.16;99991.25;30854240;28;96753;-59
2022/08/23 04:04:53;;;;;;;9.18;8.27;;;;;;;16.80;85.24;99985.28;30872575;28;96713;-59
2022/08/23 04:19:54;;;;;;;10.93;8.48;;;;;;;16.81;85.31;99984.25;30869293;28;97399;-59
2022/08/23 04:34:54;;;;;;;9.90;8.13;;;;;;;16.86;85.45;99990.63;30869240;28;96755;-59
2022/08/23 04:49:54;;;;;;;9.75;7.47;;;;;;;16.84;85.48;100021.47;30866671;28;96841;-59
2022/08/23 05:04:55;;;;;;;8.93;8.02;;;;;;;16.83;85.23;100052.94;30864309;28;104000;-60
2022/08/23 05:19:55;;;;;;;8.00;7.20;;;;;;;17.05;85.41;100047.28;30864012;28;96758;-60
2022/08/23 05:34:55;;;;;;;7.18;6.13;;;;;;;17.36;85.41;100064.44;30864533;28;101654;-60
2022/08/23 05:49:56;;;;;;;7.05;6.13;;;;;;;17.62;85.21;100058.06;30861263;28;96803;-60
2022/08/23 06:04:56;;;;;;;8.40;6.90;;;;;;;17.98;84.37;100071.88;30859897;28;97088;-57
2022/08/23 06:19:57;;;;;;;8.02;7.03;;;;;;;18.17;83.91;100081.63;30854519;28;97013;-59
2022/08/23 06:34:57;;;;;;;9.93;6.47;;;;;;;18.52;83.90;100108.00;30856952;28;96778;-60
2022/08/23 06:49:57;;;;;;;11.90;7.45;;;;;;;18.74;83.01;100113.78;30854110;28;96810;-59
2022/08/23 07:04:58;;;;;;;9.77;7.40;;;;;;;19.25;82.37;100098.16;30855069;28;96691;-60
2022/08/23 07:19:58;;;;;;;13.05;7.30;;;;;;;19.24;81.44;100114.59;30852675;28;97102;-59
2022/08/23 07:34:59;;;;;;;10.05;8.13;;;;;;;19.25;81.48;100125.19;30850674;28;97520;-59
2022/08/23 07:49:59;;;;;;;13.85;8.93;;;;;;;19.34;81.01;100132.97;30848273;28;97345;-60
2022/08/23 08:04:59;;;;;;;12.70;8.55;;;;;;;19.45;80.94;100124.06;30847303;28;97728;-60
2022/08/23 08:19:59;;;;;;;9.38;7.57;;;;;;;19.99;80.58;100139.50;30847850;28;96704;-60
2022/08/23 08:35:01;;;;;;;11.05;8.90;;;;;;;20.79;79.62;100155.09;30847707;28;107003;-60
2022/08/23 08:50:04;;;;;;;11.83;8.70;;;;;;;21.51;77.79;100160.25;30865460;28;98103;-57
2022/08/23 09:05:10;;;;;;;9.87;8.13;;;;;;;22.43;76.56;100171.81;30865196;28;96679;-58
2022/08/23 09:20:14;;;;;;;10.30;7.93;;;;;;;22.75;74.50;100185.56;30865911;28;97536;-57
2022/08/23 09:35:20;;;;;;;10.13;6.97;;;;;;;23.09;73.90;100190.06;30864435;28;96768;-59
2022/08/23 09:50:25;;;;;;;8.73;6.63;;;;;;;23.18;72.06;100183.13;30859465;28;97579;-60
2022/08/23 10:05:37;;;;;;;11.30;7.63;;;;;;;22.58;72.45;100193.78;30858408;28;96871;-57
2022/08/23 10:20:49;;;;;;;10.23;7.13;;;;;;;22.73;72.11;100203.19;30856653;28;96918;-59
2022/08/23 10:36:26;;;;;;;9.60;6.50;;;;;;;22.97;70.94;100207.31;30856507;28;97473;-59
2022/08/23 10:51:31;;;;;;;10.83;7.83;;;;;;;22.64;70.36;100217.19;30853737;28;97454;-60
2022/08/23 11:06:34;;;;;;;9.17;6.63;;;;;;;22.72;70.43;100212.41;30854205;28;97395;-60
2022/08/23 11:21:39;;;;;;;10.83;6.20;;;;;;;22.36;70.16;100220.84;30855517;28;96739;-60
2022/08/23 11:37:16;;;;;;;9.47;5.70;;;;;;;21.96;70.65;100217.19;30851566;28;96731;-59
2022/08/23 11:52:28;;;;;;;6.97;5.50;;;;;;;21.82;70.78;100217.78;30851249;28;97819;-59
2022/08/23 12:07:53;;;;;;;6.77;5.60;;;;;;;21.97;70.86;100229.69;30850293;28;96729;-59
2022/08/23 12:23:16;;;;;;;8.83;6.67;;;;;;;21.99;70.64;100226.72;30866108;28;97578;-57
2022/08/23 12:38:37;;;;;;;8.67;7.50;;;;;;;22.57;69.59;100216.56;30867576;28;96801;-58
2022/08/23 12:53:41;;;;;;;11.73;8.00;;;;;;;22.86;68.63;100219.13;30864459;28;96824;-58
2022/08/23 13:08:52;;;;;;;14.77;8.80;;;;;;;22.30;68.60;100221.81;30863764;28;97361;-58
2022/08/23 13:23:59;;;;;;;13.40;10.60;;;;;;;21.92;69.35;100218.75;30862115;28;96769;-58
2022/08/23 13:39:04;;;;;;;13.60;11.37;;;;;;;21.57;70.05;100240.63;30862029;28;97560;-59
2022/08/23 13:54:11;;;;;;;19.13;13.23;;;;;;;21.15;70.85;100233.53;30859996;28;96830;-58
2022/08/23 14:09:11;;;;;;;18.37;13.43;;;;;;;20.84;71.60;100242.91;30858149;28;96799;-59
2022/08/23 14:24:12;;;;;;;16.60;13.40;;;;;;;20.72;72.48;100235.63;30856168;28;97203;-58
2022/08/23 14:39:12;;;;;;;16.93;14.13;;;;;;;20.60;73.44;100230.19;30855415;28;98762;-58
2022/08/23 14:54:16;;;;;;;22.13;15.10;;;;;;;20.63;73.81;100224.28;30855616;28;96697;-58
2022/08/23 15:09:17;;;;;;;20.17;15.87;;;;;;;20.58;74.44;100226.88;30855385;28;96678;-58
2022/08/23 15:24:18;;;;;;;21.03;17.20;;;;;;;20.48;74.84;100240.19;30850841;28;97167;-58
2022/08/23 15:39:18;;;;;;;25.20;16.40;;;;;;;20.32;75.21;100235.47;30850761;28;96901;-58
2022/08/23 15:54:18;;;;;;;33.53;20.67;;;;;;;20.23;76.14;100251.19;30878586;28;97119;-58
2022/08/23 16:09:22;;;;;;;24.50;15.93;;;;;;;20.05;76.58;100268.31;30888522;28;96691;-58
2022/08/23 16:24:24;;;;;;;24.37;15.40;;;;;;;19.94;77.16;100276.19;30888610;28;98552;-58
2022/08/23 16:39:24;;;;;;;29.97;15.90;;;;;;;19.76;77.67;100293.22;30885264;28;96744;-58
2022/08/23 16:54:27;;;;;;;31.50;18.58;;;;;;;19.74;78.60;100294.53;30886321;28;97488;-58
2022/08/23 17:09:27;;;;;;;26.57;15.63;;;;;;;19.70;78.96;100304.16;30865246;28;97624;-58
2022/08/23 17:24:28;;;;;;;19.52;13.05;;;;;;;19.66;79.40;100325.38;30863687;28;96678;-58
2022/08/23 17:39:28;;;;;;;21.73;12.95;;;;;;;19.56;79.66;100335.88;30860918;28;102074;-58
2022/08/23 17:54:29;;;;;;;22.67;14.45;;;;;;;19.41;80.13;100339.81;30860169;28;97439;-58
2022/08/23 18:09:30;;;;;;;20.23;13.88;;;;;;;19.36;80.51;100352.34;30857901;28;96813;-58
2022/08/23 18:24:30;;;;;;;;;;;;;;;19.21;80.74;100360.81;30860229;28;96728;-58
2022/08/23 18:39:31;;;;;;;25.17;15.48;;;;;;;19.08;81.33;100373.41;30858953;28;97849;-59
2022/08/23 18:54:31;;;;;;;25.27;14.98;;;;;;;19.05;81.93;100386.50;30856512;28;97248;-58
2022/08/23 19:09:31;;;;;;;26.02;16.77;;;;;;;19.07;81.99;100401.44;30854507;28;96722;-58
2022/08/23 19:24:32;;;;;;;24.20;14.90;;;;;;;19.11;82.60;100399.94;30853174;28;103892;-58
2022/08/23 19:39:36;;;;;;;21.63;15.80;;;;;;;19.16;82.70;100418.16;30852614;28;97386;-58
2022/08/23 19:54:36;;;;;;;25.73;15.50;;;;;;;19.22;82.99;100408.38;30852418;28;97249;-58
2022/08/23 20:09:37;;;;;;;26.58;16.05;;;;;;;19.20;83.07;100419.38;30852146;28;97056;-58
2022/08/23 20:24:38;;;;;;;30.52;17.00;;;;;;;19.19;83.23;100419.59;30852535;28;96672;-58
2022/08/23 20:39:38;;;;;;;29.70;16.63;;;;;;;19.13;83.38;100423.22;30860330;28;96773;-58
2022/08/23 20:54:39;;;;;;;29.65;17.33;;;;;;;19.12;83.70;100416.97;30868011;28;98494;-58
2022/08/23 21:09:40;;;;;;;30.98;18.52;;;;;;;19.09;83.63;100425.50;30868051;28;99332;-59
2022/08/23 21:24:40;;;;;;;35.33;17.50;;;;;;;19.10;83.95;100417.19;30867071;28;97181;-58
2022/08/23 21:39:41;;;;;;;32.85;17.45;;;;;;;19.12;83.92;100400.75;30863717;28;96952;-59
2022/08/23 21:54:41;;;;;;;44.78;19.98;;;;;;;19.09;83.89;100385.81;30864168;28;100310;-59
2022/08/23 22:09:41;;;;;;;37.55;19.20;;;;;;;19.02;84.39;100376.16;30863531;28;96745;-58
2022/08/23 22:24:42;;;;;;;41.55;21.35;;;;;;;19.07;84.48;100398.72;30860856;28;104939;-58
2022/08/23 22:39:43;;;;;;;40.67;21.52;;;;;;;19.09;84.84;100385.81;30859836;28;97190;-58
2022/08/23 22:54:44;;;;;;;44.20;23.30;;;;;;;19.09;84.88;100395.81;30857546;28;96767;-58
2022/08/23 23:09:44;;;;;;;46.00;23.15;;;;;;;19.13;84.80;100398.91;30857854;28;96700;-58
2022/08/23 23:24:44;;;;;;;45.78;24.02;;;;;;;19.18;85.00;100402.59;30856557;28;96690;-58
2022/08/23 23:39:45;;;;;;;38.58;22.13;;;;;;;19.23;85.13;100427.06;30855605;28;96764;-58
2022/08/23 23:54:45;;;;;;;40.85;21.88;;;;;;;19.25;85.28;100430.34;30854396;28;96777;-59
